sensor_id;sensor_type;location;lat;lon;timestamp;pressure;altitude;pressure_sealevel;temperature;humidity
80333;BME280;69652;51.864;-2.246;2024-02-28T00:00:27;101896.75;;;8.07;100.00
80333;BME280;69652;51.864;-2.246;2024-02-28T00:02:53;101920.84;;;8.09;100.00
80333;BME280;69652;51.864;-2.246;2024-02-28T00:05:18;101929.44;;;8.06;100.00
80333;BME280;69652;51.864;-2.246;2024-02-28T00:07:44;101912.16;;;8.07;100.00
80333;BME280;69652;51.864;-2.246;2024-02-28T00:10:11;101911.34;;;8.06;100.00
80333;BME280;69652;51.864;-2.246;2024-02-28T00:12:36;101907.31;;;8.09;100.00
80333;BME280;69652;51.864;-2.246;2024-02-28T00:15:04;101902.72;;;8.09;100.00
80333;BME280;69652;51.864;-2.246;2024-02-28T00:17:30;101903.53;;;8.10;100.00
80333;BME280;69652;51.864;-2.246;2024-02-28T00:19:55;101904.63;;;8.09;100.00
80333;BME280;69652;51.864;-2.246;2024-02-28T00:22:21;101901.91;;;8.09;100.00
80333;BME280;69652;51.864;-2.246;2024-02-28T00:24:46;101908.63;;;8.06;100.00
80333;BME280;69652;51.864;-2.246;2024-02-28T00:27:12;101904.63;;;8.09;100.00
80333;BME280;69652;51.864;-2.246;2024-02-28T00:29:37;101900.03;;;8.09;100.00
80333;BME280;69652;51.864;-2.246;2024-02-28T00:32:03;101906.25;;;8.10;100.00
80333;BME280;69652;51.864;-2.246;2024-02-28T00:34:28;101906.25;;;8.10;100.00
80333;BME280;69652;51.864;-2.246;2024-02-28T00:36:54;101908.44;;;8.13;100.00
80333;BME280;69652;51.864;-2.246;2024-02-28T00:39:19;101915.75;;;8.17;100.00
80333;BME280;69652;51.864;-2.246;2024-02-28T00:41:45;101911.47;;;8.21;100.00
80333;BME280;69652;51.864;-2.246;2024-02-28T00:44:10;101908.22;;;8.19;100.00
80333;BME280;69652;51.864;-2.246;2024-02-28T00:46:36;101910.88;;;8.14;100.00
80333;BME280;69652;51.864;-2.246;2024-02-28T00:49:01;101915.50;;;8.14;100.00
80333;BME280;69652;51.864;-2.246;2024-02-28T00:51:27;101917.88;;;8.10;100.00
80333;BME280;69652;51.864;-2.246;2024-02-28T00:53:52;101909.78;;;8.10;100.00
80333;BME280;69652;51.864;-2.246;2024-02-28T00:56:19;101913.56;;;8.14;100.00
80333;BME280;69652;51.864;-2.246;2024-02-28T00:58:44;101908.97;;;8.15;100.00
80333;BME280;69652;51.864;-2.246;2024-02-28T01:01:10;101904.66;;;8.14;100.00
80333;BME280;69652;51.864;-2.246;2024-02-28T01:03:36;101908.69;;;8.11;100.00
80333;BME280;69652;51.864;-2.246;2024-02-28T01:06:01;101905.94;;;8.06;100.00
80333;BME280;69652;51.864;-2.246;2024-02-28T01:08:29;101902.66;;;8.04;100.00
80333;BME280;69652;51.864;-2.246;2024-02-28T01:10:54;101911.81;;;7.98;100.00
80333;BME280;69652;51.864;-2.246;2024-02-28T01:13:19;101924.84;;;8.01;100.00
80333;BME280;69652;51.864;-2.246;2024-02-28T01:15:46;101922.41;;;8.05;100.00
80333;BME280;69652;51.864;-2.246;2024-02-28T01:18:11;101910.53;;;8.06;100.00
80333;BME280;69652;51.864;-2.246;2024-02-28T01:20:37;101912.94;;;8.02;100.00
80333;BME280;69652;51.864;-2.246;2024-02-28T01:23:02;101907.25;;;8.04;100.00
80333;BME280;69652;51.864;-2.246;2024-02-28T01:25:28;101919.97;;;8.03;100.00
80333;BME280;69652;51.864;-2.246;2024-02-28T01:27:55;101920.75;;;7.98;100.00
80333;BME280;69652;51.864;-2.246;2024-02-28T01:30:21;101917.78;;;8.00;100.00
80333;BME280;69652;51.864;-2.246;2024-02-28T01:32:46;101920.50;;;8.00;100.00
80333;BME280;69652;51.864;-2.246;2024-02-28T01:35:12;101919.94;;;7.98;100.00
80333;BME280;69652;51.864;-2.246;2024-02-28T01:37:37;101913.16;;;7.95;100.00
80333;BME280;69652;51.864;-2.246;2024-02-28T01:40:03;101915.00;;;7.90;100.00
80333;BME280;69652;51.864;-2.246;2024-02-28T01:42:29;101916.34;;;7.92;100.00
80333;BME280;69652;51.864;-2.246;2024-02-28T01:44:55;101915.00;;;7.90;100.00
80333;BME280;69652;51.864;-2.246;2024-02-28T01:47:21;101912.31;;;7.90;100.00
80333;BME280;69652;51.864;-2.246;2024-02-28T01:49:46;101917.72;;;7.90;100.00
80333;BME280;69652;51.864;-2.246;2024-02-28T01:52:13;101922.00;;;7.91;100.00
80333;BME280;69652;51.864;-2.246;2024-02-28T01:54:39;101925.53;;;7.91;100.00
80333;BME280;69652;51.864;-2.246;2024-02-28T01:57:05;101936.34;;;7.91;100.00
80333;BME280;69652;51.864;-2.246;2024-02-28T01:59:31;101936.09;;;7.93;100.00
80333;BME280;69652;51.864;-2.246;2024-02-28T02:01:57;101938.22;;;7.91;100.00
80333;BME280;69652;51.864;-2.246;2024-02-28T02:04:23;101943.38;;;7.92;100.00
80333;BME280;69652;51.864;-2.246;2024-02-28T02:06:49;101938.78;;;7.93;100.00
80333;BME280;69652;51.864;-2.246;2024-02-28T02:09:16;101933.63;;;7.91;100.00
80333;BME280;69652;51.864;-2.246;2024-02-28T02:11:41;101934.47;;;7.92;100.00
80333;BME280;69652;51.864;-2.246;2024-02-28T02:14:07;101927.47;;;7.96;100.00
80333;BME280;69652;51.864;-2.246;2024-02-28T02:16:33;101921.25;;;7.95;100.00
80333;BME280;69652;51.864;-2.246;2024-02-28T02:18:58;101918.56;;;7.95;100.00
80333;BME280;69652;51.864;-2.246;2024-02-28T02:21:30;101919.63;;;7.94;100.00
80333;BME280;69652;51.864;-2.246;2024-02-28T02:23:59;101931.00;;;7.96;100.00
80333;BME280;69652;51.864;-2.246;2024-02-28T02:26:25;101941.56;;;7.98;100.00
80333;BME280;69652;51.864;-2.246;2024-02-28T02:28:50;101941.81;;;7.96;100.00
80333;BME280;69652;51.864;-2.246;2024-02-28T02:31:16;101932.06;;;7.95;100.00
80333;BME280;69652;51.864;-2.246;2024-02-28T02:33:42;101941.25;;;7.94;100.00
80333;BME280;69652;51.864;-2.246;2024-02-28T02:36:07;101923.66;;;7.92;100.00
80333;BME280;69652;51.864;-2.246;2024-02-28T02:38:33;101919.88;;;7.93;100.00
80333;BME280;69652;51.864;-2.246;2024-02-28T02:40:58;101934.75;;;7.90;100.00
80333;BME280;69652;51.864;-2.246;2024-02-28T02:43:23;101933.34;;;7.88;100.00
80333;BME280;69652;51.864;-2.246;2024-02-28T02:45:49;101933.63;;;7.91;100.00
80333;BME280;69652;51.864;-2.246;2024-02-28T02:48:14;101924.19;;;7.89;100.00
80333;BME280;69652;51.864;-2.246;2024-02-28T02:50:40;101921.72;;;7.87;100.00
80333;BME280;69652;51.864;-2.246;2024-02-28T02:53:08;101915.50;;;7.87;100.00
80333;BME280;69652;51.864;-2.246;2024-02-28T02:55:34;101900.84;;;7.83;100.00
80333;BME280;69652;51.864;-2.246;2024-02-28T02:58:00;101895.19;;;7.84;100.00
80333;BME280;69652;51.864;-2.246;2024-02-28T03:00:26;101892.81;;;7.88;100.00
80333;BME280;69652;51.864;-2.246;2024-02-28T03:02:51;101898.22;;;7.88;100.00
80333;BME280;69652;51.864;-2.246;2024-02-28T03:05:17;101890.09;;;7.88;100.00
80333;BME280;69652;51.864;-2.246;2024-02-28T03:07:42;101887.09;;;7.84;100.00
80333;BME280;69652;51.864;-2.246;2024-02-28T03:10:08;101894.63;;;7.82;100.00
80333;BME280;69652;51.864;-2.246;2024-02-28T03:12:35;101880.56;;;7.80;100.00
80333;BME280;69652;51.864;-2.246;2024-02-28T03:15:01;101879.75;;;7.80;100.00
80333;BME280;69652;51.864;-2.246;2024-02-28T03:17:26;101885.97;;;7.80;100.00
80333;BME280;69652;51.864;-2.246;2024-02-28T03:19:52;101879.50;;;7.81;100.00
80333;BME280;69652;51.864;-2.246;2024-02-28T03:22:17;101879.75;;;7.80;100.00
80333;BME280;69652;51.864;-2.246;2024-02-28T03:24:43;101891.66;;;7.79;100.00
80333;BME280;69652;51.864;-2.246;2024-02-28T03:27:08;101890.28;;;7.76;100.00
80333;BME280;69652;51.864;-2.246;2024-02-28T03:29:34;101872.16;;;7.77;100.00
80333;BME280;69652;51.864;-2.246;2024-02-28T03:31:59;101867.31;;;7.79;100.00
80333;BME280;69652;51.864;-2.246;2024-02-28T03:34:25;101878.66;;;7.81;100.00
80333;BME280;69652;51.864;-2.246;2024-02-28T03:36:50;101876.22;;;7.79;100.00
80333;BME280;69652;51.864;-2.246;2024-02-28T03:39:16;101875.16;;;7.80;100.00
80333;BME280;69652;51.864;-2.246;2024-02-28T03:41:42;101870.28;;;7.77;100.00
80333;BME280;69652;51.864;-2.246;2024-02-28T03:44:08;101871.09;;;7.78;100.00
80333;BME280;69652;51.864;-2.246;2024-02-28T03:46:33;101861.09;;;7.78;100.00
80333;BME280;69652;51.864;-2.246;2024-02-28T03:48:58;101870.28;;;7.77;100.00
80333;BME280;69652;51.864;-2.246;2024-02-28T03:51:24;101864.88;;;7.77;100.00
80333;BME280;69652;51.864;-2.246;2024-02-28T03:53:49;101864.63;;;7.79;100.00
80333;BME280;69652;51.864;-2.246;2024-02-28T03:56:25;101871.91;;;7.78;100.00
80333;BME280;69652;51.864;-2.246;2024-02-28T03:58:51;101868.66;;;7.76;100.00
80333;BME280;69652;51.864;-2.246;2024-02-28T04:01:17;101887.56;;;7.76;100.00
80333;BME280;69652;51.864;-2.246;2024-02-28T04:03:43;101894.59;;;7.77;100.00
80333;BME280;69652;51.864;-2.246;2024-02-28T04:06:08;101884.88;;;7.76;100.00
80333;BME280;69652;51.864;-2.246;2024-02-28T04:08:34;101877.81;;;7.75;100.00
80333;BME280;69652;51.864;-2.246;2024-02-28T04:10:59;101867.28;;;7.74;100.00
80333;BME280;69652;51.864;-2.246;2024-02-28T04:13:25;101865.13;;;7.76;100.00
80333;BME280;69652;51.864;-2.246;2024-02-28T04:15:51;101869.72;;;7.75;100.00
80333;BME280;69652;51.864;-2.246;2024-02-28T04:18:17;101866.19;;;7.75;100.00
80333;BME280;69652;51.864;-2.246;2024-02-28T04:20:43;101877.25;;;7.73;100.00
80333;BME280;69652;51.864;-2.246;2024-02-28T04:23:08;101868.91;;;7.75;100.00
80333;BME280;69652;51.864;-2.246;2024-02-28T04:25:34;101865.94;;;7.76;100.00
80333;BME280;69652;51.864;-2.246;2024-02-28T04:28:01;101867.03;;;7.75;100.00
80333;BME280;69652;51.864;-2.246;2024-02-28T04:30:27;101849.41;;;7.73;100.00
80333;BME280;69652;51.864;-2.246;2024-02-28T04:32:53;101843.19;;;7.72;100.00
80333;BME280;69652;51.864;-2.246;2024-02-28T04:35:19;101830.50;;;7.73;100.00
80333;BME280;69652;51.864;-2.246;2024-02-28T04:37:46;101823.22;;;7.73;100.00
80333;BME280;69652;51.864;-2.246;2024-02-28T04:40:12;101831.31;;;7.73;100.00
80333;BME280;69652;51.864;-2.246;2024-02-28T04:42:38;101822.16;;;7.74;100.00
80333;BME280;69652;51.864;-2.246;2024-02-28T04:45:04;101818.38;;;7.75;100.00
80333;BME280;69652;51.864;-2.246;2024-02-28T04:47:29;101814.59;;;7.76;100.00
80333;BME280;69652;51.864;-2.246;2024-02-28T04:49:56;101809.19;;;7.76;100.00
80333;BME280;69652;51.864;-2.246;2024-02-28T04:52:22;101816.47;;;7.76;100.00
80333;BME280;69652;51.864;-2.246;2024-02-28T04:54:48;101810.25;;;7.75;100.00
80333;BME280;69652;51.864;-2.246;2024-02-28T04:57:13;101821.63;;;7.77;100.00
80333;BME280;69652;51.864;-2.246;2024-02-28T04:59:39;101807.31;;;7.77;100.00
80333;BME280;69652;51.864;-2.246;2024-02-28T05:02:06;101813.53;;;7.77;100.00
80333;BME280;69652;51.864;-2.246;2024-02-28T05:04:31;101815.69;;;7.80;100.00
80333;BME280;69652;51.864;-2.246;2024-02-28T05:06:57;101802.47;;;7.79;100.00
80333;BME280;69652;51.864;-2.246;2024-02-28T05:09:22;101801.38;;;7.80;100.00
80333;BME280;69652;51.864;-2.246;2024-02-28T05:11:48;101798.94;;;7.78;100.00
80333;BME280;69652;51.864;-2.246;2024-02-28T05:14:13;101795.13;;;7.79;100.00
80333;BME280;69652;51.864;-2.246;2024-02-28T05:16:39;101789.75;;;7.79;100.00
80333;BME280;69652;51.864;-2.246;2024-02-28T05:19:05;101801.66;;;7.78;100.00
80333;BME280;69652;51.864;-2.246;2024-02-28T05:21:30;101802.47;;;7.79;100.00
80333;BME280;69652;51.864;-2.246;2024-02-28T05:23:56;101792.97;;;7.76;100.00
80333;BME280;69652;51.864;-2.246;2024-02-28T05:26:21;101812.97;;;7.75;100.00
80333;BME280;69652;51.864;-2.246;2024-02-28T05:28:47;101809.44;;;7.75;100.00
80333;BME280;69652;51.864;-2.246;2024-02-28T05:33:47;101810.81;;;7.77;100.00
80333;BME280;69652;51.864;-2.246;2024-02-28T05:36:12;101815.41;;;7.77;100.00
80333;BME280;69652;51.864;-2.246;2024-02-28T05:38:38;101817.88;;;7.78;100.00
80333;BME280;69652;51.864;-2.246;2024-02-28T05:41:03;101817.88;;;7.78;100.00
80333;BME280;69652;51.864;-2.246;2024-02-28T05:43:29;101817.31;;;7.76;100.00
80333;BME280;69652;51.864;-2.246;2024-02-28T05:45:54;101808.66;;;7.79;100.00
80333;BME280;69652;51.864;-2.246;2024-02-28T05:48:20;101792.44;;;7.79;100.00
80333;BME280;69652;51.864;-2.246;2024-02-28T05:50:46;101790.28;;;7.81;100.00
80333;BME280;69652;51.864;-2.246;2024-02-28T05:53:11;101796.75;;;7.75;100.00
80333;BME280;69652;51.864;-2.246;2024-02-28T05:55:36;101795.69;;;7.76;100.00
80333;BME280;69652;51.864;-2.246;2024-02-28T05:58:02;101799.19;;;7.77;100.00
80333;BME280;69652;51.864;-2.246;2024-02-28T06:00:28;101791.13;;;7.82;100.00
80333;BME280;69652;51.864;-2.246;2024-02-28T06:02:54;101788.16;;;7.83;100.00
80333;BME280;69652;51.864;-2.246;2024-02-28T06:05:19;101783.56;;;7.84;100.00
80333;BME280;69652;51.864;-2.246;2024-02-28T06:07:45;101771.13;;;7.83;100.00
80333;BME280;69652;51.864;-2.246;2024-02-28T06:10:10;101768.41;;;7.83;100.00
80333;BME280;69652;51.864;-2.246;2024-02-28T06:12:36;101764.09;;;7.82;100.00
80333;BME280;69652;51.864;-2.246;2024-02-28T06:15:04;101763.84;;;7.83;100.00
80333;BME280;69652;51.864;-2.246;2024-02-28T06:17:29;101756.22;;;7.80;100.00
80333;BME280;69652;51.864;-2.246;2024-02-28T06:19:55;101760.56;;;7.81;100.00
80333;BME280;69652;51.864;-2.246;2024-02-28T06:22:20;101756.78;;;7.82;100.00
80333;BME280;69652;51.864;-2.246;2024-02-28T06:24:46;101748.44;;;7.84;100.00
80333;BME280;69652;51.864;-2.246;2024-02-28T06:27:12;101749.25;;;7.84;100.00
80333;BME280;69652;51.864;-2.246;2024-02-28T06:29:42;101760.56;;;7.81;100.00
80333;BME280;69652;51.864;-2.246;2024-02-28T06:32:07;101757.31;;;7.79;100.00
80333;BME280;69652;51.864;-2.246;2024-02-28T06:34:33;101759.47;;;7.77;100.00
80333;BME280;69652;51.864;-2.246;2024-02-28T06:36:59;101753.00;;;7.78;100.00
80333;BME280;69652;51.864;-2.246;2024-02-28T06:39:24;101752.19;;;7.78;100.00
80333;BME280;69652;51.864;-2.246;2024-02-28T06:41:50;101746.50;;;7.79;100.00
80333;BME280;69652;51.864;-2.246;2024-02-28T06:44:19;101740.81;;;7.76;100.00
80333;BME280;69652;51.864;-2.246;2024-02-28T06:46:45;101742.69;;;7.75;100.00
80333;BME280;69652;51.864;-2.246;2024-02-28T06:49:10;101746.78;;;7.78;100.00
80333;BME280;69652;51.864;-2.246;2024-02-28T06:51:36;101744.59;;;7.80;100.00
80333;BME280;69652;51.864;-2.246;2024-02-28T06:54:02;101744.91;;;7.78;100.00
80333;BME280;69652;51.864;-2.246;2024-02-28T06:56:27;101749.47;;;7.78;100.00
80333;BME280;69652;51.864;-2.246;2024-02-28T06:58:53;101740.81;;;7.76;100.00
80333;BME280;69652;51.864;-2.246;2024-02-28T07:01:18;101743.00;;;7.79;100.00
80333;BME280;69652;51.864;-2.246;2024-02-28T07:03:44;101750.56;;;7.82;100.00
80333;BME280;69652;51.864;-2.246;2024-02-28T07:06:10;101741.91;;;7.80;100.00
80333;BME280;69652;51.864;-2.246;2024-02-28T07:08:36;101743.28;;;7.82;100.00
80333;BME280;69652;51.864;-2.246;2024-02-28T07:11:02;101730.88;;;7.86;100.00
80333;BME280;69652;51.864;-2.246;2024-02-28T07:13:28;101743.03;;;7.84;100.00
80333;BME280;69652;51.864;-2.246;2024-02-28T07:15:54;101751.69;;;7.86;100.00
80333;BME280;69652;51.864;-2.246;2024-02-28T07:18:23;101753.06;;;7.88;100.00
80333;BME280;69652;51.864;-2.246;2024-02-28T07:20:51;101748.22;;;7.90;100.00
80333;BME280;69652;51.864;-2.246;2024-02-28T07:23:17;101759.06;;;7.95;100.00
80333;BME280;69652;51.864;-2.246;2024-02-28T07:25:43;101766.09;;;7.96;100.00
80333;BME280;69652;51.864;-2.246;2024-02-28T07:28:08;101750.16;;;8.00;100.00
80333;BME280;69652;51.864;-2.246;2024-02-28T07:30:34;101768.03;;;8.01;100.00
80333;BME280;69652;51.864;-2.246;2024-02-28T07:33:00;101767.22;;;8.01;100.00
80333;BME280;69652;51.864;-2.246;2024-02-28T07:35:26;101782.88;;;8.04;100.00
80333;BME280;69652;51.864;-2.246;2024-02-28T07:37:52;101783.69;;;8.04;100.00
80333;BME280;69652;51.864;-2.246;2024-02-28T07:40:17;101777.78;;;8.07;100.00
80333;BME280;69652;51.864;-2.246;2024-02-28T07:42:44;101782.38;;;8.07;100.00
80333;BME280;69652;51.864;-2.246;2024-02-28T07:45:09;101783.19;;;8.07;100.00
80333;BME280;69652;51.864;-2.246;2024-02-28T07:47:37;101780.22;;;8.09;100.00
80333;BME280;69652;51.864;-2.246;2024-02-28T07:50:02;101779.41;;;8.08;99.82
80333;BME280;69652;51.864;-2.246;2024-02-28T07:52:28;101789.41;;;8.08;99.57
80333;BME280;69652;51.864;-2.246;2024-02-28T07:54:53;101785.91;;;8.07;99.74
80333;BME280;69652;51.864;-2.246;2024-02-28T07:57:19;101780.50;;;8.07;99.73
80333;BME280;69652;51.864;-2.246;2024-02-28T07:59:44;101785.91;;;8.07;99.39
80333;BME280;69652;51.864;-2.246;2024-02-28T08:02:10;101789.66;;;8.06;99.29
80333;BME280;69652;51.864;-2.246;2024-02-28T08:04:38;101798.59;;;8.07;98.78
80333;BME280;69652;51.864;-2.246;2024-02-28T08:07:04;101800.75;;;8.05;98.79
80333;BME280;69652;51.864;-2.246;2024-02-28T08:09:30;101801.56;;;8.05;98.77
80333;BME280;69652;51.864;-2.246;2024-02-28T08:11:56;101803.44;;;8.00;99.27
80333;BME280;69652;51.864;-2.246;2024-02-28T08:14:23;101812.88;;;7.97;99.25
80333;BME280;69652;51.864;-2.246;2024-02-28T08:16:48;101814.25;;;8.00;98.77
80333;BME280;69652;51.864;-2.246;2024-02-28T08:19:14;101803.69;;;7.98;98.48
80333;BME280;69652;51.864;-2.246;2024-02-28T08:21:39;101804.44;;;7.93;98.79
80333;BME280;69652;51.864;-2.246;2024-02-28T08:24:05;101802.28;;;7.90;98.84
80333;BME280;69652;51.864;-2.246;2024-02-28T08:26:31;101808.75;;;7.89;98.75
80333;BME280;69652;51.864;-2.246;2024-02-28T08:28:57;101813.63;;;7.92;98.86
80333;BME280;69652;51.864;-2.246;2024-02-28T08:31:22;101807.16;;;7.93;97.92
80333;BME280;69652;51.864;-2.246;2024-02-28T08:33:48;101801.75;;;7.93;98.04
80333;BME280;69652;51.864;-2.246;2024-02-28T08:36:14;101805.53;;;7.92;97.81
80333;BME280;69652;51.864;-2.246;2024-02-28T08:38:40;101800.66;;;7.94;98.29
80333;BME280;69652;51.864;-2.246;2024-02-28T08:41:07;101798.03;;;8.00;98.25
80333;BME280;69652;51.864;-2.246;2024-02-28T08:43:37;101796.38;;;7.98;97.40
80333;BME280;69652;51.864;-2.246;2024-02-28T08:46:03;101793.16;;;8.02;97.62
80333;BME280;69652;51.864;-2.246;2024-02-28T08:48:29;101783.97;;;8.03;97.17
80333;BME280;69652;51.864;-2.246;2024-02-28T08:50:54;101782.13;;;8.08;97.27
80333;BME280;69652;51.864;-2.246;2024-02-28T08:53:20;101779.72;;;8.12;96.38
80333;BME280;69652;51.864;-2.246;2024-02-28T08:55:45;101782.97;;;8.14;96.69
80333;BME280;69652;51.864;-2.246;2024-02-28T08:58:12;101788.66;;;8.17;96.13
80333;BME280;69652;51.864;-2.246;2024-02-28T09:00:37;101775.94;;;8.13;96.62
80333;BME280;69652;51.864;-2.246;2024-02-28T09:03:04;101777.53;;;8.09;96.43
80333;BME280;69652;51.864;-2.246;2024-02-28T09:05:29;101778.09;;;8.11;95.74
80333;BME280;69652;51.864;-2.246;2024-02-28T09:07:55;101780.03;;;8.20;95.40
80333;BME280;69652;51.864;-2.246;2024-02-28T09:10:22;101781.16;;;8.29;95.72
80333;BME280;69652;51.864;-2.246;2024-02-28T09:12:50;101773.38;;;8.33;95.36
80333;BME280;69652;51.864;-2.246;2024-02-28T09:15:15;101768.22;;;8.31;95.07
80333;BME280;69652;51.864;-2.246;2024-02-28T09:17:41;101772.88;;;8.36;95.07
80333;BME280;69652;51.864;-2.246;2024-02-28T09:20:07;101766.38;;;8.37;94.75
80333;BME280;69652;51.864;-2.246;2024-02-28T09:22:33;101767.97;;;8.38;94.26
80333;BME280;69652;51.864;-2.246;2024-02-28T09:24:59;101759.91;;;8.43;94.33
80333;BME280;69652;51.864;-2.246;2024-02-28T09:27:24;101760.72;;;8.44;94.06
80333;BME280;69652;51.864;-2.246;2024-02-28T09:29:51;101763.13;;;8.35;93.79
80333;BME280;69652;51.864;-2.246;2024-02-28T09:32:16;101767.97;;;8.33;93.75
80333;BME280;69652;51.864;-2.246;2024-02-28T09:34:43;101763.38;;;8.33;93.79
80333;BME280;69652;51.864;-2.246;2024-02-28T09:37:09;101761.47;;;8.34;93.58
80333;BME280;69652;51.864;-2.246;2024-02-28T09:39:37;101755.53;;;8.32;93.37
80333;BME280;69652;51.864;-2.246;2024-02-28T09:42:05;101756.56;;;8.31;93.23
80333;BME280;69652;51.864;-2.246;2024-02-28T09:44:31;101746.31;;;8.33;92.42
80333;BME280;69652;51.864;-2.246;2024-02-28T09:46:57;101742.03;;;8.42;92.39
80333;BME280;69652;51.864;-2.246;2024-02-28T09:49:24;101749.63;;;8.45;92.18
80333;BME280;69652;51.864;-2.246;2024-02-28T09:51:52;101753.97;;;8.51;91.69
80333;BME280;69652;51.864;-2.246;2024-02-28T09:54:18;101747.50;;;8.52;91.44
80333;BME280;69652;51.864;-2.246;2024-02-28T09:56:44;101738.06;;;8.60;91.10
80333;BME280;69652;51.864;-2.246;2024-02-28T09:59:10;101729.69;;;8.66;91.28
80333;BME280;69652;51.864;-2.246;2024-02-28T10:01:43;101724.28;;;8.66;91.40
80333;BME280;69652;51.864;-2.246;2024-02-28T10:04:10;101719.13;;;8.65;90.69
80333;BME280;69652;51.864;-2.246;2024-02-28T10:06:39;101714.53;;;8.65;89.79
80333;BME280;69652;51.864;-2.246;2024-02-28T10:09:05;101719.38;;;8.63;89.84
80333;BME280;69652;51.864;-2.246;2024-02-28T10:11:30;101713.75;;;8.75;89.60
80333;BME280;69652;51.864;-2.246;2024-02-28T10:13:56;101705.13;;;8.83;89.25
80333;BME280;69652;51.864;-2.246;2024-02-28T10:16:22;101699.69;;;8.83;89.55
80333;BME280;69652;51.864;-2.246;2024-02-28T10:18:48;101696.16;;;8.88;89.23
80333;BME280;69652;51.864;-2.246;2024-02-28T10:21:14;101686.97;;;8.79;89.14
80333;BME280;69652;51.864;-2.246;2024-02-28T10:23:41;101695.63;;;8.86;89.29
80333;BME280;69652;51.864;-2.246;2024-02-28T10:26:09;101695.34;;;8.77;88.76
80333;BME280;69652;51.864;-2.246;2024-02-28T10:28:39;101679.38;;;8.81;90.13
80333;BME280;69652;51.864;-2.246;2024-02-28T10:31:06;101685.88;;;8.90;89.43
80333;BME280;69652;51.864;-2.246;2024-02-28T10:33:35;101681.28;;;8.80;90.08
80333;BME280;69652;51.864;-2.246;2024-02-28T10:36:05;101669.66;;;8.85;90.71
80333;BME280;69652;51.864;-2.246;2024-02-28T10:38:34;101677.25;;;8.93;90.30
80333;BME280;69652;51.864;-2.246;2024-02-28T10:41:01;101665.88;;;8.91;91.29
80333;BME280;69652;51.864;-2.246;2024-02-28T10:43:30;101663.44;;;8.94;91.07
80333;BME280;69652;51.864;-2.246;2024-02-28T10:45:57;101651.50;;;9.00;90.87
80333;BME280;69652;51.864;-2.246;2024-02-28T10:48:24;101649.06;;;8.99;91.27
80333;BME280;69652;51.864;-2.246;2024-02-28T10:50:51;101640.16;;;9.09;91.48
80333;BME280;69652;51.864;-2.246;2024-02-28T10:53:21;101637.69;;;9.22;90.93
80333;BME280;69652;51.864;-2.246;2024-02-28T10:55:48;101634.72;;;9.24;90.53
80333;BME280;69652;51.864;-2.246;2024-02-28T10:58:14;101634.72;;;9.29;90.87
80333;BME280;69652;51.864;-2.246;2024-02-28T11:00:42;101625.50;;;9.50;90.61
80333;BME280;69652;51.864;-2.246;2024-02-28T11:03:11;101623.06;;;9.54;89.03
80333;BME280;69652;51.864;-2.246;2024-02-28T11:05:44;101630.38;;;9.53;89.80
80333;BME280;69652;51.864;-2.246;2024-02-28T11:08:22;101630.91;;;9.45;89.68
80333;BME280;69652;51.864;-2.246;2024-02-28T11:10:58;101638.50;;;9.38;90.03
80333;BME280;69652;51.864;-2.246;2024-02-28T11:13:26;101626.28;;;9.46;89.55
80333;BME280;69652;51.864;-2.246;2024-02-28T11:15:52;101637.16;;;9.35;88.89
80333;BME280;69652;51.864;-2.246;2024-02-28T11:18:18;101618.72;;;9.37;89.42
80333;BME280;69652;51.864;-2.246;2024-02-28T11:20:44;101611.66;;;9.52;88.46
80333;BME280;69652;51.864;-2.246;2024-02-28T11:23:14;101606.75;;;9.64;88.85
80333;BME280;69652;51.864;-2.246;2024-02-28T11:25:40;101588.34;;;9.61;88.35
80333;BME280;69652;51.864;-2.246;2024-02-28T11:28:06;101576.38;;;9.77;88.16
80333;BME280;69652;51.864;-2.246;2024-02-28T11:30:32;101570.94;;;9.72;87.71
80333;BME280;69652;51.864;-2.246;2024-02-28T11:32:58;101558.91;;;9.93;87.57
80333;BME280;69652;51.864;-2.246;2024-02-28T11:35:25;101553.09;;;10.15;86.90
80333;BME280;69652;51.864;-2.246;2024-02-28T11:37:53;101562.00;;;10.31;86.31
80333;BME280;69652;51.864;-2.246;2024-02-28T11:40:22;101542.84;;;10.56;83.87
80333;BME280;69652;51.864;-2.246;2024-02-28T11:42:48;101548.56;;;10.55;84.14
80333;BME280;69652;51.864;-2.246;2024-02-28T11:45:14;101553.72;;;10.56;83.22
80333;BME280;69652;51.864;-2.246;2024-02-28T11:47:39;101557.22;;;10.62;83.73
80333;BME280;69652;51.864;-2.246;2024-02-28T11:50:06;101556.63;;;10.26;82.64
80333;BME280;69652;51.864;-2.246;2024-02-28T11:52:32;101543.56;;;10.33;83.83
80333;BME280;69652;51.864;-2.246;2024-02-28T11:54:57;101569.41;;;10.20;83.55
80333;BME280;69652;51.864;-2.246;2024-02-28T11:57:23;101556.97;;;10.04;83.21
80333;BME280;69652;51.864;-2.246;2024-02-28T11:59:49;101565.44;;;9.92;83.74
80333;BME280;69652;51.864;-2.246;2024-02-28T12:02:15;101570.63;;;9.89;82.91
80333;BME280;69652;51.864;-2.246;2024-02-28T12:04:45;101582.00;;;9.86;82.21
80333;BME280;69652;51.864;-2.246;2024-02-28T12:07:11;101565.25;;;9.78;81.97
80333;BME280;69652;51.864;-2.246;2024-02-28T12:09:37;101556.53;;;9.82;82.26
80333;BME280;69652;51.864;-2.246;2024-02-28T12:12:04;101561.19;;;9.76;81.86
80333;BME280;69652;51.864;-2.246;2024-02-28T12:14:37;101546.59;;;9.67;81.89
80333;BME280;69652;51.864;-2.246;2024-02-28T12:17:04;101549.84;;;9.64;82.58
80333;BME280;69652;51.864;-2.246;2024-02-28T12:19:29;101549.28;;;9.67;82.73
80333;BME280;69652;51.864;-2.246;2024-02-28T12:21:55;101544.69;;;9.67;82.23
80333;BME280;69652;51.864;-2.246;2024-02-28T12:24:21;101534.09;;;9.71;82.44
80333;BME280;69652;51.864;-2.246;2024-02-28T12:26:46;101528.66;;;9.76;82.45
80333;BME280;69652;51.864;-2.246;2024-02-28T12:29:12;101522.69;;;9.79;82.26
80333;BME280;69652;51.864;-2.246;2024-02-28T12:31:38;101521.06;;;9.78;82.06
80333;BME280;69652;51.864;-2.246;2024-02-28T12:34:04;101512.66;;;9.74;82.62
80333;BME280;69652;51.864;-2.246;2024-02-28T12:36:30;101510.22;;;9.78;83.14
80333;BME280;69652;51.864;-2.246;2024-02-28T12:38:57;101499.38;;;9.78;83.29